M I D A S
Marine Information and Data Acquisition System
Tripno 1999 of the Zeeleeuw from 2010-12-06 07:47:39 to 2010-12-06 18:22:24
Back to CruiseResearch ActivitiesStationsMapUnderway DataData graphs

EquipmentUnitsComment
TimeDGPSUTC
LatitudeDGPSDM.mWGS84
LongitudeDGPSDM.mWGS84
HeadingGyrodeg 
SOGDGPSknotsSpeed over ground
COGDGPSdegCourse over ground
DepthEcho soundermeters200 kHz
Missing or incorrect values are displayed as -999
Navigation data collected by the RV Zeeleeuw from 2010-12-06 07:35:11 to 2010-12-06 18:27:10
Time Latitude Longitude Heading SOG COG Depth
2010-12-06 07:36:16 51°13.664 2°55.956 123.8 0.2 287 6.9
2010-12-06 07:37:16 51°13.659 2°55.957 123.7 0.1 63 7
2010-12-06 07:38:16 51°13.659 2°55.957 124.6 0.1 323 6.9
2010-12-06 07:39:16 51°13.66 2°55.959 126.1 -999 167 6.9
2010-12-06 07:40:16 51°13.662 2°55.959 126.1 0.1 322 6.9
2010-12-06 07:41:16 51°13.662 2°55.96 126.1 0.1 135 6.9
2010-12-06 07:42:16 51°13.662 2°55.96 126.3 -999 88 6.9
2010-12-06 07:43:16 51°13.661 2°55.96 118 0.2 187 7
2010-12-06 07:44:16 51°13.66 2°55.96 112.2 0.1 199 7
2010-12-06 07:45:20 51°13.678 2°55.902 106.5 4 292 -999
2010-12-06 07:46:19 51°13.69 2°55.797 82.1 3.6 270 11.4
2010-12-06 07:47:17 51°13.687 2°55.739 48.4 0.7 272 11.9
2010-12-06 07:48:16 51°13.696 2°55.731 10.2 1.3 348 12.6
2010-12-06 07:49:16 51°13.746 2°55.695 333.4 5.6 331 11.1
2010-12-06 07:50:17 51°13.87 2°55.598 334.6 9.4 336 9.4
2010-12-06 07:51:20 51°14.031 2°55.483 335.5 10.5 336 -999
2010-12-06 07:52:20 51°14.191 2°55.356 332 10.7 331 -999
2010-12-06 07:53:19 51°14.344 2°55.212 328.8 11 329 -999
2010-12-06 07:54:19 51°14.498 2°55.046 324.8 11.6 324 -999
2010-12-06 07:55:17 51°14.649 2°54.842 327.2 12.8 322 10.9
2010-12-06 07:56:16 51°14.821 2°54.64 328.3 13.2 325 11.1
2010-12-06 07:57:16 51°14.999 2°54.44 328 12.9 324 10.6
2010-12-06 07:58:16 51°15.177 2°54.239 328.5 13.2 325 10.6
2010-12-06 07:59:16 51°15.349 2°54.023 327.4 13.2 323 11.2
2010-12-06 08:00:16 51°15.52 2°53.802 326.2 13.2 321 11.4
2010-12-06 08:01:16 51°15.693 2°53.582 326.8 13.2 322 11.4
2010-12-06 08:02:16 51°15.869 2°53.376 330.9 13.1 326 12.2
2010-12-06 08:03:16 51°16.048 2°53.185 331.2 13 326 11.5
2010-12-06 08:04:16 51°16.233 2°53.007 334.9 12.9 330 11.6
2010-12-06 08:05:16 51°16.424 2°52.858 337.3 12.7 334 11.7
2010-12-06 08:06:16 51°16.615 2°52.713 337.7 12.6 335 11.1
2010-12-06 08:07:16 51°16.809 2°52.604 346.6 12.2 344 9.7
2010-12-06 08:08:16 51°17.009 2°52.587 3.2 11.9 1 9.5
2010-12-06 08:09:16 51°17.208 2°52.57 354.1 12 351 9.8
2010-12-06 08:10:16 51°17.406 2°52.496 350.2 12.2 346 10.2
2010-12-06 08:11:16 51°17.604 2°52.422 350.6 12.1 346 10.6
2010-12-06 08:12:16 51°17.799 2°52.345 350.2 12.2 346 10.3
2010-12-06 08:13:16 51°17.995 2°52.264 349.9 12.2 345 10.6
2010-12-06 08:14:16 51°18.193 2°52.183 350.4 12.2 345 11.2
2010-12-06 08:15:16 51°18.39 2°52.099 350.7 12.2 345 11.3
2010-12-06 08:16:16 51°18.587 2°52.015 349.9 12.3 345 12.1
2010-12-06 08:17:16 51°18.785 2°51.927 350 12.4 344 13.6
2010-12-06 08:18:16 51°18.982 2°51.834 350.6 12.3 344 14.2
2010-12-06 08:19:16 51°19.178 2°51.74 350.6 12.3 343 15.3
2010-12-06 08:20:16 51°19.373 2°51.641 350.3 12.3 342 15.8
2010-12-06 08:21:16 51°19.569 2°51.54 350.3 12.4 342 15.7
2010-12-06 08:22:16 51°19.766 2°51.44 350.3 12.5 342 14.6
2010-12-06 08:23:16 51°19.964 2°51.345 350.2 12.4 343 13.6
2010-12-06 08:24:16 51°20.163 2°51.249 350.1 12.6 344 12.9
2010-12-06 08:25:16 51°20.362 2°51.152 350.2 12.7 342 15.6
2010-12-06 08:26:16 51°20.563 2°51.048 350.2 12.7 342 16.9
2010-12-06 08:27:16 51°20.764 2°50.942 350.2 12.7 342 18.8
2010-12-06 08:28:16 51°20.961 2°50.921 22.6 11.2 19 21.5
2010-12-06 08:29:16 51°21.13 2°51.064 34.9 11.6 28 22.5
2010-12-06 08:30:16 51°21.296 2°51.218 35.7 11.6 30 23.5
2010-12-06 08:31:16 51°21.465 2°51.361 29.1 11.6 21 24.1
2010-12-06 08:32:16 51°21.656 2°51.437 15.9 12.1 4 24.1
2010-12-06 08:33:16 51°21.861 2°51.4 354.4 13.1 342 23.9
2010-12-06 08:34:16 51°22.068 2°51.297 349.8 13.1 342 23.6
2010-12-06 08:35:16 51°22.272 2°51.171 347 13 340 23.6
2010-12-06 08:36:16 51°22.473 2°51.053 348.4 12.5 341 23.1
2010-12-06 08:37:16 51°22.669 2°50.94 348.2 12.4 341 22.9
2010-12-06 08:38:16 51°22.86 2°50.785 340.4 13.1 324 19.1
2010-12-06 08:39:16 51°23.044 2°50.625 340.5 12.7 331 13.1
2010-12-06 08:40:16 51°23.23 2°50.477 339.1 12.6 333 16.8
2010-12-06 08:41:16 51°23.416 2°50.318 339.1 12.8 330 18.4
2010-12-06 08:42:16 51°23.602 2°50.159 339.2 12.6 330 20.8
2010-12-06 08:43:16 51°23.786 2°49.984 334.5 13.1 326 23.1
2010-12-06 08:44:16 51°23.963 2°49.787 333.9 12.9 325 22.3
2010-12-06 08:45:16 51°24.141 2°49.589 334.2 13.1 325 23
2010-12-06 08:46:16 51°24.321 2°49.391 334.5 13.2 325 23.2
2010-12-06 08:47:16 51°24.501 2°49.192 334.3 13.2 326 22.7
2010-12-06 08:48:16 51°24.662 2°48.951 318.4 13.9 309 20.5
2010-12-06 08:49:16 51°24.805 2°48.664 316.9 13.6 309 22.9
2010-12-06 08:50:16 51°24.925 2°48.426 324.4 8.1 313 26.5
2010-12-06 08:51:16 51°24.98 2°48.344 2.4 2.3 316 27.9
2010-12-06 08:52:16 51°24.98 2°48.307 37.2 1.6 244 28.9
2010-12-06 08:53:16 51°24.966 2°48.269 54.7 1.8 244 28.4
2010-12-06 08:54:16 51°24.949 2°48.229 64.5 1.8 234 28.8
2010-12-06 08:55:16 51°24.931 2°48.187 69 1.9 239 29.5
2010-12-06 08:56:16 51°24.912 2°48.145 68.9 1.9 238 29.9
2010-12-06 08:57:16 51°24.891 2°48.102 74.8 2.1 230 29.2
2010-12-06 08:58:16 51°24.871 2°48.058 82.5 2 231 29.3
2010-12-06 08:59:16 51°24.852 2°48.024 82.8 1 172 28.8
2010-12-06 09:00:16 51°24.883 2°48.091 38.8 5.5 29 28.9
2010-12-06 09:01:16 51°25.022 2°48.149 19.6 10.1 11 30.2
2010-12-06 09:02:16 51°25.194 2°48.179 11.6 10.5 3 30.6
2010-12-06 09:03:16 51°25.364 2°48.231 24.8 9.4 20 28.9
2010-12-06 09:04:16 51°25.428 2°48.324 66.5 3.4 74 29.1
2010-12-06 09:05:16 51°25.415 2°48.396 102.2 3 133 30
2010-12-06 09:06:16 51°25.374 2°48.447 118.8 3.4 150 30.1
2010-12-06 09:07:16 51°25.317 2°48.485 134.7 3.9 164 30.5
2010-12-06 09:08:16 51°25.248 2°48.492 160.6 4.5 185 30.2
2010-12-06 09:09:16 51°25.173 2°48.458 184.5 4.8 204 29.8
2010-12-06 09:10:16 51°25.105 2°48.392 204.2 4.8 217 29.7
2010-12-06 09:11:16 51°25.049 2°48.304 223.6 4.8 229 30.3
2010-12-06 09:12:16 51°25.005 2°48.201 239.6 4.6 241 30.1
2010-12-06 09:13:16 51°24.973 2°48.089 254.5 4.6 248 30.3
2010-12-06 09:14:16 51°24.946 2°47.975 253.9 4.6 248 29.6
2010-12-06 09:15:16 51°24.92 2°47.861 255.7 4.6 248 30.1
2010-12-06 09:16:16 51°24.898 2°47.745 261.1 4.5 253 30.7
2010-12-06 09:17:16 51°24.878 2°47.63 261 4.4 255 31.8
2010-12-06 09:18:16 51°24.858 2°47.516 261.2 4.5 254 31.6
2010-12-06 09:19:16 51°24.839 2°47.402 260.8 4.4 253 31.4
2010-12-06 09:20:16 51°24.813 2°47.292 245.3 4.4 244 31.8
2010-12-06 09:21:16 51°24.776 2°47.192 229.6 4.3 237 30.7
2010-12-06 09:22:16 51°24.732 2°47.097 223.7 4.5 233 31.5
2010-12-06 09:23:16 51°24.684 2°47.004 222.6 4.5 230 31.2
2010-12-06 09:24:16 51°24.638 2°46.913 223.5 4.3 232 30.9
2010-12-06 09:25:16 51°24.596 2°46.83 218.4 4 232 30.5
2010-12-06 09:26:16 51°24.552 2°46.753 215.4 3.8 227 29.9
2010-12-06 09:27:16 51°24.507 2°46.679 214.6 3.8 226 29.3
2010-12-06 09:28:16 51°24.463 2°46.604 214.8 3.9 226 30.7
2010-12-06 09:29:16 51°24.415 2°46.525 215.1 4.3 227 28.6
2010-12-06 09:30:16 51°24.363 2°46.441 214.1 4.6 226 29.1
2010-12-06 09:31:16 51°24.309 2°46.356 214.4 4.6 225 29.5
2010-12-06 09:32:16 51°24.255 2°46.269 215.9 4.5 229 30.7
2010-12-06 09:33:16 51°24.202 2°46.182 215.6 4.6 224 28
2010-12-06 09:34:16 51°24.147 2°46.098 214.9 4.7 223 30.6
2010-12-06 09:35:16 51°24.093 2°46.013 215.1 4.5 223 29.7
2010-12-06 09:36:16 51°24.039 2°45.927 215.7 4.6 224 28.4
2010-12-06 09:37:16 51°23.985 2°45.843 215 4.6 222 29
2010-12-06 09:38:16 51°23.931 2°45.76 214.2 4.5 223 28.2
2010-12-06 09:39:16 51°23.875 2°45.678 214.8 4.5 223 28.6
2010-12-06 09:40:16 51°23.823 2°45.593 225.7 4.5 230 28.3
2010-12-06 09:41:16 51°23.788 2°45.49 251.9 4.3 248 28.2
2010-12-06 09:42:16 51°23.765 2°45.384 261.7 4.2 256 28.5
2010-12-06 09:43:16 51°23.75 2°45.275 270.9 4.1 261 28.3
2010-12-06 09:44:16 51°23.741 2°45.168 279.5 4.1 263 28.9
2010-12-06 09:45:16 51°23.741 2°45.063 289.3 3.9 272 27.3
2010-12-06 09:46:16 51°23.748 2°44.962 298.6 3.8 278 28.4
2010-12-06 09:47:16 51°23.763 2°44.868 308.5 3.6 289 28.1
2010-12-06 09:48:16 51°23.785 2°44.782 320.5 3.3 299 28
2010-12-06 09:49:16 51°23.817 2°44.717 344.8 2.9 319 28.3
2010-12-06 09:50:16 51°23.855 2°44.684 5.6 2 336 28
2010-12-06 09:51:16 51°23.877 2°44.667 18.2 1.2 326 28.3
2010-12-06 09:52:16 51°23.887 2°44.651 22.4 0.8 307 28
2010-12-06 09:53:16 51°23.892 2°44.633 24 0.7 282 28.5
2010-12-06 09:54:16 51°23.892 2°44.612 24.8 0.8 262 28.5
2010-12-06 09:55:16 51°23.889 2°44.59 24 0.8 252 28.8
2010-12-06 09:56:16 51°23.883 2°44.567 27.4 1 245 28.3
2010-12-06 09:57:16 51°23.883 2°44.553 36.3 1.1 22 28.5
2010-12-06 09:58:16 51°23.952 2°44.619 34.2 7.3 32 26.9
2010-12-06 09:59:16 51°24.063 2°44.791 46.3 10.8 45 28.3
2010-12-06 10:00:16 51°24.205 2°45.004 44.1 11.8 43 26.1
2010-12-06 10:01:16 51°24.352 2°45.223 44.2 12 43 27
2010-12-06 10:02:16 51°24.501 2°45.441 43.3 12.2 41 28
2010-12-06 10:03:16 51°24.658 2°45.648 40 12.2 39 27.3
2010-12-06 10:04:16 51°24.816 2°45.857 40.8 12.4 40 26.4
2010-12-06 10:05:16 51°24.977 2°46.059 36 12.4 37 26
2010-12-06 10:06:16 51°25.14 2°46.26 35.5 12.4 38 26.6
2010-12-06 10:07:16 51°25.303 2°46.461 36.1 12.3 37 26.6
2010-12-06 10:08:16 51°25.465 2°46.661 35.9 12.3 36 24.4
2010-12-06 10:09:16 51°25.625 2°46.863 35.6 12.3 38 25.2
2010-12-06 10:10:16 51°25.786 2°47.066 36.2 12.3 37 22.9
2010-12-06 10:11:16 51°25.952 2°47.256 31.6 12.2 33 24.9
2010-12-06 10:12:16 51°26.124 2°47.427 30.5 12.2 31 25.3
2010-12-06 10:13:16 51°26.298 2°47.591 31.4 12.2 31 24.7
2010-12-06 10:14:16 51°26.471 2°47.755 31.2 12.1 30 24.4
2010-12-06 10:15:16 51°26.646 2°47.92 31.2 12.1 30 24.7
2010-12-06 10:16:16 51°26.82 2°48.086 31.1 12.2 31 26
2010-12-06 10:17:16 51°26.995 2°48.254 31.4 12.3 30 26.5
2010-12-06 10:18:16 51°27.17 2°48.422 31 12.2 30 27.3
2010-12-06 10:19:16 51°27.347 2°48.589 31.1 12.3 31 27.9
2010-12-06 10:20:16 51°27.525 2°48.754 31.4 12.5 30 29
2010-12-06 10:21:16 51°27.704 2°48.919 31.3 12.5 30 28.1
2010-12-06 10:22:16 51°27.884 2°49.087 31.2 12.6 30 26.7
2010-12-06 10:23:16 51°28.065 2°49.252 31.1 12.6 29 27.4
2010-12-06 10:24:16 51°28.247 2°49.416 31.7 12.6 30 30.3
2010-12-06 10:25:16 51°28.431 2°49.584 31.3 12.7 31 32.3
2010-12-06 10:26:16 51°28.615 2°49.751 31.3 12.8 29 31.4
2010-12-06 10:27:16 51°28.798 2°49.927 31.6 12.8 32 29.8
2010-12-06 10:28:16 51°28.978 2°50.108 30.9 12.8 31 29
2010-12-06 10:29:16 51°29.158 2°50.291 31 12.8 30 32.5
2010-12-06 10:30:16 51°29.349 2°50.448 25.6 12.8 26 30.4
2010-12-06 10:31:16 51°29.538 2°50.605 26.5 12.8 27 31.8
2010-12-06 10:32:16 51°29.729 2°50.761 25.8 12.9 28 31
2010-12-06 10:33:16 51°29.92 2°50.916 26.1 12.9 26 31.7
2010-12-06 10:34:16 51°30.109 2°51.072 26.2 12.8 28 26.7
2010-12-06 10:35:16 51°30.296 2°51.231 26.3 12.7 28 22.5
2010-12-06 10:36:16 51°30.48 2°51.392 26.2 12.7 28 18.8
2010-12-06 10:37:16 51°30.666 2°51.55 26.2 12.6 29 22.5
2010-12-06 10:38:16 51°30.852 2°51.71 26.2 12.7 28 23.7
2010-12-06 10:39:16 51°31.038 2°51.869 26.2 12.8 29 25.2
2010-12-06 10:40:16 51°31.231 2°52.002 19 12.6 20 21
2010-12-06 10:41:16 51°31.427 2°52.128 21.9 12.7 23 23.7
2010-12-06 10:42:16 51°31.622 2°52.263 21.9 12.8 24 26.6
2010-12-06 10:43:16 51°31.816 2°52.397 22.1 12.8 23 26.1
2010-12-06 10:44:16 51°31.995 2°52.523 22 10.2 24 27
2010-12-06 10:45:16 51°32.123 2°52.618 23 6.6 27 25.2
2010-12-06 10:46:16 51°32.187 2°52.681 34.7 2.7 49 27.7
2010-12-06 10:47:16 51°32.189 2°52.704 76.4 0.4 130 27.6
2010-12-06 10:48:16 51°32.181 2°52.712 82.4 0.7 152 6.5
2010-12-06 10:49:16 51°32.174 2°52.718 82.9 0.5 152 5
2010-12-06 10:50:16 51°32.168 2°52.724 76.7 0.4 151 28.2
2010-12-06 10:51:16 51°32.161 2°52.731 67.8 0.4 136 28.2
2010-12-06 10:52:16 51°32.157 2°52.742 52.3 0.3 97 28.3
2010-12-06 10:53:16 51°32.155 2°52.755 32.6 0.4 86 28.3
2010-12-06 10:54:16 51°32.159 2°52.769 17.6 0.8 41 27.4
2010-12-06 10:55:16 51°32.176 2°52.782 5 2.1 21 25.9
2010-12-06 10:56:16 51°32.201 2°52.866 85.2 5.5 96 25.3
2010-12-06 10:57:16 51°32.14 2°53.032 136.8 8.6 140 25.4
2010-12-06 10:58:16 51°32.021 2°53.198 126.8 9.9 128 24
2010-12-06 10:59:16 51°31.923 2°53.397 130.7 8.4 131 21.8
2010-12-06 11:00:16 51°31.852 2°53.561 122.3 6.8 125 22.4
2010-12-06 11:01:16 51°31.782 2°53.676 141.4 5.1 141 20.8
2010-12-06 11:02:16 51°31.731 2°53.751 136.5 3 137 22.2
2010-12-06 11:03:16 51°31.713 2°53.78 161.8 1.2 134 22.2
2010-12-06 11:04:16 51°31.692 2°53.807 149.6 1.9 141 22.6
2010-12-06 11:05:16 51°31.673 2°53.851 111.8 2.1 108 22.3
2010-12-06 11:06:16 51°31.668 2°53.905 72.3 2 84 20.9
2010-12-06 11:07:16 51°31.679 2°53.954 32.7 1.8 56 22.8
2010-12-06 11:08:16 51°31.693 2°53.982 9.4 0.9 60 22.5
2010-12-06 11:09:16 51°31.699 2°54.003 1.7 0.7 67 23.9
2010-12-06 11:10:16 51°31.704 2°54.02 357.2 0.8 78 24.1
2010-12-06 11:11:16 51°31.708 2°54.039 359.3 1.4 39 24.6
2010-12-06 11:12:16 51°31.735 2°54.121 78.2 4.9 88 24
2010-12-06 11:13:16 51°31.664 2°54.285 139.3 10.7 138 22.3
2010-12-06 11:14:16 51°31.496 2°54.455 151.1 12.3 153 22.3
2010-12-06 11:15:16 51°31.312 2°54.602 154.7 12.5 149 19.7
2010-12-06 11:16:16 51°31.134 2°54.767 156.2 12.2 156 18
2010-12-06 11:17:16 51°31.015 2°54.815 193.3 4.4 183 21.4
2010-12-06 11:18:16 51°30.965 2°54.807 199.4 2.4 178 21.6
2010-12-06 11:19:16 51°30.931 2°54.821 180.6 2 153 19.3
2010-12-06 11:20:16 51°30.907 2°54.849 168.7 1.5 139 21.8
2010-12-06 11:21:16 51°30.888 2°54.883 154.2 2 124 22.3
2010-12-06 11:22:16 51°30.869 2°54.929 143.1 3.3 128 21.2
2010-12-06 11:23:16 51°30.849 2°55.102 74.8 8.5 72 29.4
2010-12-06 11:24:16 51°30.945 2°55.349 47.2 12.6 45 24.7
2010-12-06 11:25:16 51°31.11 2°55.576 34 13.1 39 22.7
2010-12-06 11:26:16 51°31.279 2°55.798 35.1 13.1 41 21.5
2010-12-06 11:27:16 51°31.45 2°56.03 36.3 13.9 40 21.3
2010-12-06 11:28:16 51°31.623 2°56.271 36.5 13.8 41 21.6
2010-12-06 11:29:16 51°31.799 2°56.505 37.7 13.8 42 18.5
2010-12-06 11:30:16 51°31.962 2°56.748 39.1 11.2 44 20.5
2010-12-06 11:31:16 51°32.039 2°56.897 41 4.4 50 21
2010-12-06 11:32:16 51°32.077 2°56.945 358.2 2.3 29 21.4
2010-12-06 11:33:16 51°32.105 2°56.961 325.2 1.4 8 20.4
2010-12-06 11:34:16 51°32.122 2°56.958 290.4 0.7 336 22.3
2010-12-06 11:35:16 51°32.124 2°56.947 256.5 0.5 245 22.2
2010-12-06 11:36:16 51°32.113 2°56.943 222.8 1 179 20
2010-12-06 11:37:16 51°32.094 2°56.954 193.1 1.5 153 19.6
2010-12-06 11:38:16 51°32.068 2°56.975 183.4 2.5 166 21.5
2010-12-06 11:39:16 51°32.041 2°56.912 275.9 5 286 21.9
2010-12-06 11:40:16 51°32.132 2°56.763 311.1 9.7 318 22.2
2010-12-06 11:41:16 51°32.246 2°56.567 302 10.1 307 22.8
2010-12-06 11:42:16 51°32.353 2°56.355 302.5 10.1 306 25.1
2010-12-06 11:43:16 51°32.41 2°56.209 294 4.5 306 27.1
2010-12-06 11:44:16 51°32.454 2°56.147 307.9 2.7 324 28.1
2010-12-06 11:45:16 51°32.478 2°56.112 287.9 1.4 317 28
2010-12-06 11:46:16 51°32.491 2°56.093 280.3 0.8 314 28.7
2010-12-06 11:47:16 51°32.5 2°56.083 274.3 0.5 330 28.9
2010-12-06 11:48:15 51°32.505 2°56.079 267.3 0.3 327 28.6
2010-12-06 11:49:16 51°32.508 2°56.077 252.6 -999 339 28.7
2010-12-06 11:50:16 51°32.508 2°56.078 238 0.1 93 28.7
2010-12-06 11:51:16 51°32.508 2°56.087 227.7 0.5 86 28.2
2010-12-06 11:52:16 51°32.509 2°56.102 226.7 0.6 85 28.7
2010-12-06 11:53:15 51°32.512 2°56.12 227.3 0.8 64 27.2
2010-12-06 11:54:16 51°32.51 2°56.116 246.9 2.1 250 27.9
2010-12-06 11:55:15 51°32.53 2°55.998 291.6 7.1 299 28.1
2010-12-06 11:56:16 51°32.617 2°55.8 304.3 9.9 313 26.6
2010-12-06 11:57:16 51°32.721 2°55.62 300 6.8 309 29.3
2010-12-06 11:58:16 51°32.753 2°55.521 276.2 2.5 293 30.7
2010-12-06 11:59:16 51°32.755 2°55.486 246.9 0.9 271 30.8
2010-12-06 12:00:16 51°32.753 2°55.474 238.9 0.2 236 30.2
2010-12-06 12:01:16 51°32.751 2°55.475 236.6 0.2 84 30.4
2010-12-06 12:02:16 51°32.752 2°55.482 233.6 0.4 90 30.8
2010-12-06 12:03:16 51°32.754 2°55.493 234.1 0.6 85 31
2010-12-06 12:04:15 51°32.758 2°55.506 235.6 0.4 95 30.7
2010-12-06 12:05:16 51°32.755 2°55.459 265.4 4 281 30.3
2010-12-06 12:06:15 51°32.829 2°55.335 320.7 9.5 332 28.4
2010-12-06 12:07:16 51°33.001 2°55.178 323 13.1 330 27.6
2010-12-06 12:08:16 51°33.212 2°55.089 353.5 13.8 -999 25.9
2010-12-06 12:09:16 51°33.392 2°55.317 56.2 14.6 55 29.6
2010-12-06 12:10:16 51°33.489 2°55.677 70.2 15 71 30
2010-12-06 12:11:16 51°33.571 2°56.049 72.4 14.8 71 31.5
2010-12-06 12:12:16 51°33.652 2°56.423 71.9 14.8 72 30.4
2010-12-06 12:13:15 51°33.731 2°56.789 72 14.7 69 29.3
2010-12-06 12:14:16 51°33.812 2°57.168 72.3 14.7 68 29.8
2010-12-06 12:15:15 51°33.89 2°57.538 71.7 14.8 72 30.6
2010-12-06 12:16:16 51°33.971 2°57.917 71.7 14.8 73 28.3
2010-12-06 12:17:15 51°34.048 2°58.284 72.5 14.9 69 25.5
2010-12-06 12:18:16 51°34.128 2°58.664 72 14.7 72 27
2010-12-06 12:19:16 51°34.204 2°58.975 58.4 8.8 56 24.5
2010-12-06 12:20:15 51°34.313 2°59.073 14.7 8.5 23 27.5
2010-12-06 12:21:16 51°34.45 2°59.106 342.1 7.9 351 30.2
2010-12-06 12:22:15 51°34.525 2°59.01 269.4 4.4 271 28.3
2010-12-06 12:23:16 51°34.497 2°58.904 238.8 4.5 241 30.3
2010-12-06 12:24:15 51°34.464 2°58.781 248.6 4.4 258 29.4
2010-12-06 12:25:16 51°34.455 2°58.684 255.2 3.2 269 28.2
2010-12-06 12:26:16 51°34.453 2°58.609 257 2.9 281 28.3
2010-12-06 12:27:16 51°34.462 2°58.53 267.5 3.2 283 30.2
2010-12-06 12:28:16 51°34.482 2°58.448 274.3 3.4 295 31
2010-12-06 12:29:16 51°34.508 2°58.364 280.7 3.6 302 29.6
2010-12-06 12:30:16 51°34.547 2°58.289 290.6 3.8 315 31.5
2010-12-06 12:31:15 51°34.593 2°58.222 297.3 3.8 320 33.5
2010-12-06 12:32:16 51°34.647 2°58.161 304.7 4 327 33.9
2010-12-06 12:33:15 51°34.708 2°58.111 313 4.2 336 33.8
2010-12-06 12:34:16 51°34.779 2°58.08 328.5 4.6 352 31
2010-12-06 12:35:16 51°34.857 2°58.076 343.4 4.8 3 33.9
2010-12-06 12:36:16 51°34.938 2°58.105 4.5 5 20 31.1
2010-12-06 12:37:15 51°35.012 2°58.17 26.7 5.2 36 32
2010-12-06 12:38:15 51°35.071 2°58.272 58.5 5.1 58 34.8
2010-12-06 12:39:16 51°35.104 2°58.4 87.6 5 76 35.1
2010-12-06 12:40:15 51°35.109 2°58.524 115.1 4.5 95 35
2010-12-06 12:41:16 51°35.1 2°58.649 115.5 4.7 95 34.3
2010-12-06 12:42:15 51°35.094 2°58.775 110.4 4.7 94 34.6
2010-12-06 12:43:16 51°35.089 2°58.903 116.4 4.7 96 33.6
2010-12-06 12:44:15 51°35.071 2°59.015 135 4.2 115 31.5
2010-12-06 12:45:16 51°35.039 2°59.109 150.8 3.8 127 29.6
2010-12-06 12:46:15 51°35.004 2°59.199 145.8 4 122 29.7
2010-12-06 12:47:15 51°34.972 2°59.297 140 4.2 115 31.8
2010-12-06 12:48:16 51°34.941 2°59.398 138.5 4.2 115 32.6
2010-12-06 12:49:16 51°34.911 2°59.498 136.5 4.1 116 32.7
2010-12-06 12:50:16 51°34.884 2°59.599 134.6 4.1 116 31.8
2010-12-06 12:51:16 51°34.857 2°59.703 132.2 4.3 110 30.5
2010-12-06 12:52:15 51°34.834 2°59.808 128.6 4.2 110 28.8
2010-12-06 12:53:15 51°34.813 2°59.917 125.3 4.3 107 29.1
2010-12-06 12:54:16 51°34.804 3°0.036 108.1 4.5 90 28.9
2010-12-06 12:55:16 51°34.812 3°0.16 89.6 4.8 73 28
2010-12-06 12:56:15 51°34.842 3°0.279 67 5.1 59 23.8
2010-12-06 12:57:16 51°34.892 3°0.392 48.8 5 49 25.8
2010-12-06 12:58:16 51°34.952 3°0.478 30.6 4.7 34 27.3
2010-12-06 12:59:16 51°35.017 3°0.55 27.4 4.9 35 27.5
2010-12-06 13:00:15 51°35.08 3°0.627 33.2 4.8 38 25.9
2010-12-06 13:01:16 51°35.139 3°0.715 45.2 4.7 47 28.7
2010-12-06 13:02:15 51°35.185 3°0.814 65.5 4.6 61 26.6
2010-12-06 13:03:16 51°35.213 3°0.927 87.2 4.4 74 27
2010-12-06 13:04:15 51°35.221 3°1.037 107.8 4 92 27.3
2010-12-06 13:05:16 51°35.213 3°1.142 124.2 3.8 103 26.5
2010-12-06 13:06:16 51°35.198 3°1.241 127.4 3.7 108 25.3
2010-12-06 13:07:15 51°35.179 3°1.33 138.9 3.3 114 24.1
2010-12-06 13:08:16 51°35.15 3°1.403 157.8 2.8 136 23.9
2010-12-06 13:09:16 51°35.116 3°1.444 177.8 2.2 158 23.5
2010-12-06 13:10:16 51°35.082 3°1.454 200.5 2 188 23.1
2010-12-06 13:11:15 51°35.054 3°1.429 223 1.8 226 21.9
2010-12-06 13:12:16 51°35.02 3°1.332 235.5 5.7 236 24.7
2010-12-06 13:13:15 51°34.981 3°1.263 212 2.3 213 23.6
2010-12-06 13:14:15 51°34.953 3°1.254 196.3 2 176 22.3
2010-12-06 13:15:16 51°34.889 3°1.187 226.8 7.5 228 23
2010-12-06 13:16:15 51°34.815 3°0.966 236.8 10.3 237 23.3
2010-12-06 13:17:16 51°34.734 3°0.717 237.3 10.4 242 23.1
2010-12-06 13:18:15 51°34.658 3°0.479 238 9.1 247 23.1
2010-12-06 13:19:15 51°34.616 3°0.336 235.2 3.8 243 24.4
2010-12-06 13:20:15 51°34.596 3°0.294 208.4 0.9 170 23.8
2010-12-06 13:21:15 51°34.594 3°0.298 208.7 0.4 85 23.3
2010-12-06 13:22:15 51°34.599 3°0.306 209.2 0.6 33 23.1
2010-12-06 13:23:16 51°34.607 3°0.317 211.3 0.7 18 23.3
2010-12-06 13:24:16 51°34.617 3°0.329 211.6 0.9 16 24
2010-12-06 13:25:15 51°34.629 3°0.344 212.7 1 26 24.3
2010-12-06 13:26:16 51°34.644 3°0.359 218.4 1.1 32 23.6
2010-12-06 13:27:15 51°34.658 3°0.372 225.4 0.5 325 23.6
2010-12-06 13:28:16 51°34.666 3°0.293 274.5 5.6 288 24.9
2010-12-06 13:29:15 51°34.684 3°0.064 268.6 11 273 27.8
2010-12-06 13:30:15 51°34.73 2°59.75 279.8 12.6 289 28
2010-12-06 13:31:16 51°34.798 2°59.427 281.6 12.6 289 28.4
2010-12-06 13:32:15 51°34.866 2°59.119 283.9 12.5 291 31.3
2010-12-06 13:33:16 51°34.951 2°58.804 285.8 12.6 295 32.3
2010-12-06 13:34:15 51°35.035 2°58.501 285.8 12.6 294 34.1
2010-12-06 13:35:15 51°35.118 2°58.192 285.4 12.6 293 34.3
2010-12-06 13:36:15 51°35.201 2°57.884 284.5 12.6 292 36.7
2010-12-06 13:37:16 51°35.285 2°57.572 285.6 12.4 293 38.2
2010-12-06 13:38:15 51°35.366 2°57.271 284.7 12.5 295 36.8
2010-12-06 13:39:15 51°35.448 2°56.965 284.9 12.7 296 36.8
2010-12-06 13:40:15 51°35.531 2°56.658 284.8 12.3 289 36.4
2010-12-06 13:41:15 51°35.616 2°56.354 284.9 12.5 296 34.3
2010-12-06 13:42:16 51°35.701 2°56.047 285.3 12.3 294 37.3
2010-12-06 13:43:15 51°35.785 2°55.752 285.3 12.3 296 35.1
2010-12-06 13:44:16 51°35.871 2°55.45 285.9 12.2 295 37.7
2010-12-06 13:45:15 51°35.954 2°55.156 285.5 12.3 295 38.1
2010-12-06 13:46:16 51°36.042 2°54.853 285.3 12.5 297 39
2010-12-06 13:47:15 51°36.123 2°54.558 285.1 12.3 294 38.3
2010-12-06 13:48:16 51°36.21 2°54.254 285.7 12.4 295 34.3
2010-12-06 13:49:15 51°36.294 2°53.957 284.9 12.4 293 27.4
2010-12-06 13:50:15 51°36.378 2°53.653 284.6 12.6 296 24.2
2010-12-06 13:51:15 51°36.465 2°53.345 285.1 12.6 295 24.8
2010-12-06 13:52:15 51°36.551 2°53.036 284.1 12.6 293 26
2010-12-06 13:53:15 51°36.634 2°52.724 283.9 12.7 290 28.8
2010-12-06 13:54:15 51°36.704 2°52.406 280.2 12.6 288 30.2
2010-12-06 13:55:15 51°36.774 2°52.088 281.3 12.7 291 31.5
2010-12-06 13:56:15 51°36.842 2°51.77 280.8 12.6 288 34.5
2010-12-06 13:57:15 51°36.913 2°51.454 281.5 12.5 289 36.1
2010-12-06 13:58:15 51°36.979 2°51.136 281.8 12.6 290 36.9
2010-12-06 13:59:15 51°37.047 2°50.819 281 12.6 291 38
2010-12-06 14:00:15 51°37.115 2°50.501 281 12.6 288 38.8
2010-12-06 14:01:15 51°37.186 2°50.185 281.4 12.5 290 38.7
2010-12-06 14:02:15 51°37.257 2°49.871 281.1 12.5 289 36.2
2010-12-06 14:03:15 51°37.327 2°49.556 281.6 12.5 292 40.3
2010-12-06 14:04:15 51°37.395 2°49.239 281.3 12.4 286 42.6
2010-12-06 14:05:15 51°37.463 2°48.922 280.8 12.6 291 40.3
2010-12-06 14:06:15 51°37.531 2°48.604 281.9 12.5 287 41
2010-12-06 14:07:15 51°37.607 2°48.29 285.5 12.6 294 37.8
2010-12-06 14:08:16 51°37.704 2°47.983 289.7 12.5 298 31
2010-12-06 14:09:15 51°37.8 2°47.691 292.5 12.5 297 20.7
2010-12-06 14:10:15 51°37.907 2°47.405 295.5 12.6 303 21.9
2010-12-06 14:11:15 51°38.025 2°47.124 296.8 12.7 304 25.1
2010-12-06 14:12:15 51°38.153 2°46.847 297.6 12.9 307 29.8
2010-12-06 14:13:15 51°38.282 2°46.57 298.4 13.2 310 34.1
2010-12-06 14:14:15 51°38.431 2°46.308 308.2 13.5 316 35
2010-12-06 14:15:15 51°38.605 2°46.075 314 13.7 321 36.2
2010-12-06 14:16:15 51°38.789 2°45.857 316.9 13.8 325 37.6
2010-12-06 14:17:15 51°38.987 2°45.665 328.4 14.2 336 36.9
2010-12-06 14:18:16 51°39.212 2°45.529 334.3 14.1 340 37
2010-12-06 14:19:15 51°39.43 2°45.401 333.9 14.3 339 40.6
2010-12-06 14:20:16 51°39.653 2°45.267 333.7 14.1 339 39.3
2010-12-06 14:21:15 51°39.869 2°45.135 334 14.2 342 36.5
2010-12-06 14:22:16 51°40.1 2°45.023 337.8 14.3 343 39
2010-12-06 14:23:15 51°40.328 2°44.933 343 14.5 348 39.7
2010-12-06 14:24:15 51°40.563 2°44.854 343.3 14.5 349 41.2
2010-12-06 14:25:15 51°40.798 2°44.773 342.7 14.3 348 41.6
2010-12-06 14:26:15 51°41.029 2°44.691 342.7 14 347 40.5
2010-12-06 14:27:16 51°41.265 2°44.607 343.4 14.4 347 39.9
2010-12-06 14:28:15 51°41.495 2°44.53 345.4 14.4 351 41.1
2010-12-06 14:29:16 51°41.734 2°44.463 345.6 14.2 349 38.2
2010-12-06 14:30:15 51°41.967 2°44.4 345.6 14.4 350 38.6
2010-12-06 14:31:16 51°42.21 2°44.376 357.2 14.5 1 38.5
2010-12-06 14:32:15 51°42.45 2°44.39 358.6 14.8 3 39.3
2010-12-06 14:33:15 51°42.693 2°44.401 358.4 14.6 1 35.7
2010-12-06 14:34:15 51°42.931 2°44.41 357.5 12.4 1 34
2010-12-06 14:35:15 51°43.064 2°44.385 323.2 5.4 337 39.6
2010-12-06 14:36:16 51°43.121 2°44.321 280.3 3.6 313 40.3
2010-12-06 14:37:15 51°43.156 2°44.216 280.3 5.2 298 39.1
2010-12-06 14:38:16 51°43.208 2°44.103 292.2 5.2 316 35.2
2010-12-06 14:39:15 51°43.275 2°44.043 323.1 4.5 343 38.2
2010-12-06 14:40:16 51°43.346 2°44.016 326 4.1 346 38.5
2010-12-06 14:41:15 51°43.412 2°43.994 327.5 4 350 38.7
2010-12-06 14:42:16 51°43.48 2°43.976 329.8 4.1 352 36.9
2010-12-06 14:43:16 51°43.548 2°43.969 345.5 4.2 3 40.8
2010-12-06 14:44:16 51°43.617 2°43.976 351.2 4.2 5 39.1
2010-12-06 14:45:16 51°43.684 2°43.98 341.9 4 358 40.6
2010-12-06 14:46:16 51°43.752 2°43.959 316.9 4.2 341 38.1
2010-12-06 14:47:16 51°43.814 2°43.9 305.7 4.5 326 39.2
2010-12-06 14:48:16 51°43.882 2°43.837 310.1 4.8 331 37
2010-12-06 14:49:16 51°43.951 2°43.773 308.5 4.8 331 37.9
2010-12-06 14:50:15 51°44.018 2°43.709 307 4.7 327 39.7
2010-12-06 14:51:16 51°44.085 2°43.64 308 4.8 328 37.7
2010-12-06 14:52:15 51°44.153 2°43.579 308 4.6 330 37.8
2010-12-06 14:53:16 51°44.219 2°43.518 307.1 4.5 331 39.4
2010-12-06 14:54:16 51°44.284 2°43.46 307.9 4.5 332 37.5
2010-12-06 14:55:16 51°44.349 2°43.403 309 4.6 334 34.1
2010-12-06 14:56:15 51°44.413 2°43.349 306.7 4.4 329 34.8
2010-12-06 14:57:15 51°44.477 2°43.293 306.1 4.4 330 35.4
2010-12-06 14:58:16 51°44.542 2°43.233 306.6 4.5 330 38.4
2010-12-06 14:59:15 51°44.604 2°43.176 307.1 4.4 329 39.9
2010-12-06 15:00:15 51°44.667 2°43.114 307 4.4 331 41
2010-12-06 15:01:15 51°44.729 2°43.054 307.6 4.5 331 40.8
2010-12-06 15:02:15 51°44.792 2°42.995 305.9 4.4 328 41.8
2010-12-06 15:03:15 51°44.855 2°42.936 307.1 4.3 330 39.5
2010-12-06 15:04:15 51°44.918 2°42.879 307.6 4.3 332 39.9
2010-12-06 15:05:15 51°44.978 2°42.819 307.5 4.4 327 41.2
2010-12-06 15:06:15 51°45.041 2°42.76 309.1 4.5 330 37.7
2010-12-06 15:07:16 51°45.107 2°42.702 308.2 4.4 333 40.1
2010-12-06 15:08:15 51°45.166 2°42.642 308.6 4.3 328 41.4
2010-12-06 15:09:16 51°45.238 2°42.603 337 4.7 351 42.6
2010-12-06 15:10:15 51°45.316 2°42.605 359.8 4.8 8 38.6
2010-12-06 15:11:15 51°45.391 2°42.646 24 4.9 24 41
2010-12-06 15:12:15 51°45.462 2°42.704 31.1 4.5 29 34.1
2010-12-06 15:13:15 51°45.52 2°42.767 48.7 4 39 37.3
2010-12-06 15:14:16 51°45.569 2°42.839 64.3 4 47 36.2
2010-12-06 15:15:15 51°45.603 2°42.924 86.8 3.8 65 39.8
2010-12-06 15:16:16 51°45.618 2°43.021 109.2 3.5 88 41.8
2010-12-06 15:17:15 51°45.611 2°43.112 132.8 3.2 114 39.2
2010-12-06 15:18:16 51°45.582 2°43.179 161 2.6 138 40.4
2010-12-06 15:19:15 51°45.558 2°43.202 180.8 1.3 153 40.9
2010-12-06 15:20:16 51°45.509 2°43.172 210.1 5.6 219 39.4
2010-12-06 15:21:15 51°45.477 2°43.05 252.2 4 277 36.5
2010-12-06 15:22:15 51°45.498 2°42.969 275.2 2.8 303 35.5
2010-12-06 15:23:15 51°45.53 2°42.921 279.4 2.2 317 35.8
2010-12-06 15:24:15 51°45.558 2°42.844 265.8 5.1 283 34.7
2010-12-06 15:25:15 51°45.567 2°42.738 245.5 2.7 273 35.5
2010-12-06 15:26:15 51°45.568 2°42.688 228.7 1.5 261 38.5
2010-12-06 15:27:15 51°45.509 2°42.628 205.9 7 213 35.9
2010-12-06 15:28:15 51°45.397 2°42.469 215.6 9.7 216 41.1
2010-12-06 15:29:15 51°45.248 2°42.344 204.6 10.2 212 43.1
2010-12-06 15:30:15 51°45.129 2°42.219 211.8 6.1 216 36.2
2010-12-06 15:31:15 51°45.067 2°42.131 215.1 4.4 224 38.4
2010-12-06 15:32:16 51°45.02 2°42.06 212.2 2.4 222 37.6
2010-12-06 15:33:15 51°45.007 2°42.054 185 0.2 143 39.4
2010-12-06 15:34:15 51°45.01 2°42.059 184.5 0.5 24 38.4
2010-12-06 15:35:15 51°45.019 2°42.065 186.3 0.7 21 38.6
2010-12-06 15:36:16 51°45.033 2°42.071 193.1 0.9 14 37
2010-12-06 15:37:15 51°45.047 2°42.074 198.9 1 359 36.8
2010-12-06 15:38:15 51°45.065 2°42.076 204.8 1.2 7 38.8
2010-12-06 15:39:15 51°45.081 2°42.075 207.9 0.3 296 39.7
2010-12-06 15:40:15 51°45.019 2°42.077 172.8 7 170 37.5
2010-12-06 15:41:15 51°44.874 2°42.126 169.9 10 169 41.7
2010-12-06 15:42:15 51°44.691 2°42.184 170.2 12.1 168 42.2
2010-12-06 15:43:15 51°44.498 2°42.243 167.4 11.9 167 36.3
2010-12-06 15:44:15 51°44.306 2°42.306 168.8 11.9 168 42.9
2010-12-06 15:45:15 51°44.113 2°42.366 169.4 12 172 41.8
2010-12-06 15:46:15 51°43.921 2°42.432 167.7 11.4 171 36.6
2010-12-06 15:47:15 51°43.725 2°42.492 169.1 12.5 166 37
2010-12-06 15:48:15 51°43.531 2°42.551 170.5 11.8 170 37.4
2010-12-06 15:49:16 51°43.335 2°42.612 170.5 12.1 169 39.5
2010-12-06 15:50:16 51°43.14 2°42.669 169.9 11.5 168 37.5
2010-12-06 15:51:15 51°42.945 2°42.728 169.5 12.3 169 40.6
2010-12-06 15:52:15 51°42.748 2°42.789 168.1 12.1 168 36.5
2010-12-06 15:53:16 51°42.551 2°42.849 168.9 11.5 170 35.1
2010-12-06 15:54:16 51°42.355 2°42.907 169.6 12.4 170 37
2010-12-06 15:55:15 51°42.161 2°42.964 168.2 11.8 168 37.2
2010-12-06 15:56:15 51°41.964 2°43.023 168.5 12.3 164 36.9
2010-12-06 15:57:15 51°41.769 2°43.083 169.3 11.8 174 35.4
2010-12-06 15:58:16 51°41.568 2°43.142 168.4 12.1 172 34.9
2010-12-06 15:59:15 51°41.374 2°43.199 169.7 12 171 32.9
2010-12-06 16:00:16 51°41.175 2°43.263 168.8 12 167 32.2
2010-12-06 16:01:15 51°40.98 2°43.312 170.1 11.8 170 34.7
2010-12-06 16:02:15 51°40.778 2°43.362 170.3 12.4 171 36.8
2010-12-06 16:03:16 51°40.576 2°43.419 170.2 12 171 35.9
2010-12-06 16:04:15 51°40.38 2°43.475 168.5 11.9 170 34.2
2010-12-06 16:05:16 51°40.178 2°43.533 169 11.8 169 35.6
2010-12-06 16:06:15 51°39.984 2°43.59 166.1 12 171 37.4
2010-12-06 16:07:15 51°39.789 2°43.677 163.2 12.1 165 36.5
2010-12-06 16:08:15 51°39.596 2°43.766 163 11.8 164 36.3
2010-12-06 16:09:16 51°39.397 2°43.855 164.1 12.5 163 36.2
2010-12-06 16:10:16 51°39.201 2°43.939 164.3 11.8 169 34.8
2010-12-06 16:11:16 51°39.005 2°44.026 164.2 12.2 165 38.7
2010-12-06 16:12:16 51°38.81 2°44.112 164.8 12.1 163 36.6
2010-12-06 16:13:15 51°38.62 2°44.193 164.8 11.8 166 33.6
2010-12-06 16:14:15 51°38.424 2°44.276 164.7 12.5 163 37.7
2010-12-06 16:15:15 51°38.231 2°44.36 164.4 11.9 166 34.5
2010-12-06 16:16:16 51°38.033 2°44.448 164.6 12.2 164 33.7
2010-12-06 16:17:15 51°37.842 2°44.533 163.7 11.9 165 34.8
2010-12-06 16:18:16 51°37.642 2°44.617 165.2 12.4 168 33.6
2010-12-06 16:19:16 51°37.448 2°44.703 163.2 12.2 162 37
2010-12-06 16:20:15 51°37.257 2°44.785 164.2 11.7 169 37.3
2010-12-06 16:21:15 51°37.06 2°44.873 161.5 12.3 164 37.4
2010-12-06 16:22:16 51°36.86 2°44.958 164.2 12.3 161 37.4
2010-12-06 16:23:16 51°36.662 2°45.04 164 12.2 165 37.1
2010-12-06 16:24:15 51°36.466 2°45.118 164.8 12.4 165 37.8
2010-12-06 16:25:16 51°36.264 2°45.202 164.7 12.2 164 35.4
2010-12-06 16:26:15 51°36.067 2°45.285 163.8 12.5 166 30.8
2010-12-06 16:27:15 51°35.868 2°45.368 161.2 12 168 27.8
2010-12-06 16:28:15 51°35.668 2°45.447 165.6 12.7 167 27
2010-12-06 16:29:15 51°35.467 2°45.524 164.1 12.6 164 20.2
2010-12-06 16:30:16 51°35.263 2°45.6 163.5 12.3 169 19.8
2010-12-06 16:31:15 51°35.065 2°45.672 164.8 12.1 168 17.5
2010-12-06 16:32:16 51°34.861 2°45.742 164.4 12.6 167 17.6
2010-12-06 16:33:15 51°34.664 2°45.818 164.8 12.7 167 28.1
2010-12-06 16:34:16 51°34.458 2°45.899 165.2 12.4 164 31.7
2010-12-06 16:35:15 51°34.26 2°45.978 163.7 12.9 162 33.5
2010-12-06 16:36:16 51°34.054 2°46.061 163.9 12.9 164 32
2010-12-06 16:37:15 51°33.855 2°46.135 165.8 12.7 168 32.9
2010-12-06 16:38:15 51°33.653 2°46.205 164.6 12.4 167 33.5
2010-12-06 16:39:16 51°33.445 2°46.271 166.9 12.6 169 33.3
2010-12-06 16:40:15 51°33.243 2°46.335 167.1 12.7 169 34.2
2010-12-06 16:41:16 51°33.035 2°46.402 167 12.8 168 33.2
2010-12-06 16:42:15 51°32.833 2°46.466 165.9 12.4 171 34.1
2010-12-06 16:43:16 51°32.624 2°46.534 164.8 12.9 165 32.6
2010-12-06 16:44:15 51°32.421 2°46.598 166.9 13 171 28.8
2010-12-06 16:45:15 51°32.213 2°46.66 167 12.7 169 30
2010-12-06 16:46:15 51°32.006 2°46.723 166.8 12.3 170 30.4
2010-12-06 16:47:15 51°31.797 2°46.784 166.9 12.8 168 30.4
2010-12-06 16:48:16 51°31.584 2°46.846 166.3 12.6 172 29.2
2010-12-06 16:49:15 51°31.38 2°46.91 164.9 12.6 172 28.9
2010-12-06 16:50:16 51°31.17 2°47.004 159.7 12.9 165 28.2
2010-12-06 16:51:15 51°30.971 2°47.105 159.2 13 163 26.8
2010-12-06 16:52:16 51°30.765 2°47.205 159.9 13 163 28.3
2010-12-06 16:53:15 51°30.564 2°47.307 160 12.9 164 27.4
2010-12-06 16:54:16 51°30.357 2°47.407 160.6 12.6 163 26.6
2010-12-06 16:55:16 51°30.153 2°47.503 161.1 13 165 26.6
2010-12-06 16:56:15 51°29.951 2°47.601 161.2 12.8 164 26.1
2010-12-06 16:57:15 51°29.746 2°47.699 160.3 12.9 163 25.7
2010-12-06 16:58:15 51°29.542 2°47.797 160.2 12.7 164 24.8
2010-12-06 16:59:16 51°29.336 2°47.895 160.5 12.8 164 26.2
2010-12-06 17:00:15 51°29.135 2°47.993 160.9 12.7 164 27.1
2010-12-06 17:01:16 51°28.928 2°48.092 160.3 12.9 163 28.8
2010-12-06 17:02:15 51°28.726 2°48.183 161.4 12.6 165 31.5
2010-12-06 17:03:15 51°28.521 2°48.277 159.7 12.9 163 31.3
2010-12-06 17:04:15 51°28.314 2°48.368 161.2 12.9 163 29.2
2010-12-06 17:05:15 51°28.107 2°48.446 162.2 13.1 167 29.3
2010-12-06 17:06:16 51°27.894 2°48.526 162.8 13.1 167 30.8
2010-12-06 17:07:15 51°27.691 2°48.603 162.4 12.7 167 28.7
2010-12-06 17:08:16 51°27.48 2°48.684 162.2 12.7 168 26.6
2010-12-06 17:09:15 51°27.275 2°48.762 162.4 13.2 167 26
2010-12-06 17:10:16 51°27.063 2°48.844 162.3 13.1 167 24.6
2010-12-06 17:11:15 51°26.861 2°48.924 161.7 12.8 166 23.3
2010-12-06 17:12:16 51°26.652 2°49.004 162.7 12.9 167 22.3
2010-12-06 17:13:15 51°26.45 2°49.078 162 12.6 168 23.6
2010-12-06 17:14:15 51°26.244 2°49.151 162.4 12.6 166 23.5
2010-12-06 17:15:15 51°26.037 2°49.223 162.5 12.6 167 23.8
2010-12-06 17:16:15 51°25.829 2°49.296 161.9 13 168 23.8
2010-12-06 17:17:16 51°25.617 2°49.367 162 12.6 170 23.3
2010-12-06 17:18:15 51°25.411 2°49.438 162.9 12.7 168 22.8
2010-12-06 17:19:16 51°25.197 2°49.511 163.2 12.8 170 22.7
2010-12-06 17:20:15 51°24.99 2°49.583 162.7 12.9 166 22.7
2010-12-06 17:21:15 51°24.778 2°49.656 162.5 13 168 22.5
2010-12-06 17:22:15 51°24.567 2°49.733 162 13 166 22.7
2010-12-06 17:23:15 51°24.358 2°49.809 162.3 13.2 168 22.6
2010-12-06 17:24:15 51°24.147 2°49.881 162.3 13 168 22.5
2010-12-06 17:25:15 51°23.937 2°49.956 162.2 12.8 165 22
2010-12-06 17:26:16 51°23.723 2°50.033 161.8 12.9 168 22.9
2010-12-06 17:27:15 51°23.517 2°50.106 161.4 12.9 166 19.5
2010-12-06 17:28:15 51°23.309 2°50.179 162 12.7 169 18.1
2010-12-06 17:29:15 51°23.1 2°50.25 162.7 12.6 167 15.3
2010-12-06 17:30:15 51°22.893 2°50.321 162.1 12.7 169 17.1
2010-12-06 17:31:15 51°22.686 2°50.39 162.5 12.7 169 22.2
2010-12-06 17:32:15 51°22.481 2°50.458 162.3 12.5 166 22.9
2010-12-06 17:33:16 51°22.271 2°50.524 162 12.9 171 22.9
2010-12-06 17:34:15 51°22.068 2°50.589 161.9 12.6 164 22.6
2010-12-06 17:35:16 51°21.855 2°50.654 162.6 12.6 169 23.2
2010-12-06 17:36:15 51°21.647 2°50.707 167.2 12.8 178 23.8
2010-12-06 17:37:16 51°21.426 2°50.719 172.3 13.3 179 23.7
2010-12-06 17:38:15 51°21.21 2°50.706 173.9 13.1 183 23.2
2010-12-06 17:39:15 51°20.988 2°50.695 174 13.1 181 22.4
2010-12-06 17:40:15 51°20.763 2°50.686 174.3 13.1 182 20.3
2010-12-06 17:41:15 51°20.54 2°50.679 173.6 13.4 181 17.9
2010-12-06 17:42:16 51°20.316 2°50.67 170.3 13 181 15.7
2010-12-06 17:43:15 51°20.117 2°50.758 149.1 12.1 158 13.8
2010-12-06 17:44:15 51°19.926 2°50.886 148.6 12.5 159 12.5
2010-12-06 17:45:15 51°19.733 2°51.009 148.7 12.5 160 12.2
2010-12-06 17:46:16 51°19.535 2°51.138 148.8 13.1 159 14.5
2010-12-06 17:47:15 51°19.343 2°51.265 150 12.7 158 14.9
2010-12-06 17:48:15 51°19.147 2°51.39 150.3 12.6 158 15
2010-12-06 17:49:15 51°18.953 2°51.515 150.6 12.9 158 14
2010-12-06 17:50:16 51°18.751 2°51.644 149 12.5 159 13.4
2010-12-06 17:51:15 51°18.551 2°51.754 153.8 13 161 12.4
2010-12-06 17:52:15 51°18.345 2°51.859 154.9 12.9 163 11.1
2010-12-06 17:53:15 51°18.137 2°51.957 154.6 12.2 165 10.3
2010-12-06 17:54:15 51°17.928 2°52.058 155 13.4 162 10.5
2010-12-06 17:55:16 51°17.718 2°52.166 155.3 13.1 163 10.6
2010-12-06 17:56:15 51°17.514 2°52.272 155.7 13.5 162 10
2010-12-06 17:57:16 51°17.302 2°52.376 156.4 13.3 163 9.9
2010-12-06 17:58:15 51°17.099 2°52.482 154.6 12.8 163 9.3
2010-12-06 17:59:15 51°16.89 2°52.587 155 13.1 163 9.2
2010-12-06 18:00:15 51°16.682 2°52.692 155.4 13.3 162 10.1
2010-12-06 18:01:15 51°16.472 2°52.794 155.1 12.8 163 11.2
2010-12-06 18:02:15 51°16.262 2°52.893 156.1 12.9 163 11.2
2010-12-06 18:03:15 51°16.064 2°52.983 155.4 10.6 165 11.3
2010-12-06 18:04:15 51°15.925 2°53.035 155.6 7.7 169 11.3
2010-12-06 18:05:15 51°15.808 2°53.07 155.2 6.8 170 11.2
2010-12-06 18:06:15 51°15.698 2°53.106 148.6 6.6 165 11
2010-12-06 18:07:15 51°15.585 2°53.18 139.9 8.5 152 10.9
2010-12-06 18:08:15 51°15.453 2°53.313 136.2 9.6 145 10.4
2010-12-06 18:09:15 51°15.324 2°53.45 134.1 8.4 143 9.7
2010-12-06 18:10:15 51°15.215 2°53.596 125.1 8.4 134 9.5
2010-12-06 18:11:16 51°15.102 2°53.776 125.8 10.8 134 9.1
2010-12-06 18:12:15 51°14.971 2°53.997 124.5 12.2 133 8.8
2010-12-06 18:13:16 51°14.848 2°54.238 116.5 11.5 122 9.1
2010-12-06 18:14:15 51°14.757 2°54.468 114 9.9 123 9.3
2010-12-06 18:15:16 51°14.667 2°54.711 114 10.9 121 10.8
2010-12-06 18:16:15 51°14.556 2°54.95 124.7 11.7 133 10.6
2010-12-06 18:17:16 51°14.403 2°55.151 142.3 11.5 146 10
2010-12-06 18:18:19 51°14.24 2°55.323 145 10.7 149 -999
2010-12-06 18:19:19 51°14.112 2°55.423 153.1 7.8 157 -999
2010-12-06 18:20:19 51°13.995 2°55.505 153.5 7.5 156 10.1
2010-12-06 18:21:18 51°13.886 2°55.586 152.9 6.5 153 9.8
2010-12-06 18:22:17 51°13.8 2°55.662 149.9 6.2 149 9.7
2010-12-06 18:23:16 51°13.731 2°55.759 127.6 4.9 130 10
2010-12-06 18:24:15 51°13.692 2°55.851 118.5 3.9 117 8.1
2010-12-06 18:25:15 51°13.666 2°55.947 111.4 3.2 113 6.9
2010-12-06 18:26:15 51°13.664 2°55.952 134.1 0.3 317 6.7